Time;durP1;ratioP1;P1;durP2;ratioP2;P2;SDS_P1;SDS_P2;PMS_P1;PMS_P2;Temp;Humidity;BMP_temperature;BMP_pressure;BME280_temperature;BME280_humidity;BME280_pressure;Samples;Min_cycle;Max_cycle;Signal;HPM_P1;HPM_P2
2023/06/22 00:01:10;;;;;;;34.57;25.93;;;16.20;97.50;;;;;;5044103;28;20291;-67
2023/06/22 00:03:36;;;;;;;32.50;25.03;;;16.20;98.20;;;;;;5057987;28;20131;-67
2023/06/22 00:06:02;;;;;;;33.70;25.60;;;16.10;97.40;;;;;;5041435;28;20049;-67
2023/06/22 00:08:27;;;;;;;38.10;28.67;;;16.10;97.30;;;;;;5029736;28;20533;-67
2023/06/22 00:10:53;;;;;;;33.30;25.90;;;16.10;97.20;;;;;;5046238;28;20047;-67
2023/06/22 00:13:19;;;;;;;34.97;27.30;;;16.00;97.00;;;;;;5046276;28;20044;-67
2023/06/22 00:15:44;;;;;;;36.40;27.27;;;16.00;97.80;;;;;;5046412;28;20025;-67
2023/06/22 00:18:11;;;;;;;38.77;29.47;;;16.00;98.00;;;;;;5046856;28;20083;-67
2023/06/22 00:20:37;;;;;;;36.80;28.43;;;15.90;98.30;;;;;;5046747;28;20040;-67
2023/06/22 00:23:08;;;;;;;41.23;26.93;;;15.90;98.20;;;;;;5046941;28;20783;-67
2023/06/22 00:25:35;;;;;;;42.90;30.90;;;15.80;98.20;;;;;;5029908;28;20033;-67
2023/06/22 00:28:02;;;;;;;39.53;28.50;;;15.80;98.40;;;;;;5046963;28;20370;-67
2023/06/22 00:30:27;;;;;;;45.03;29.87;;;15.70;98.50;;;;;;5047569;28;20319;-67
2023/06/22 00:32:53;;;;;;;37.57;29.47;;;15.60;98.50;;;;;;5046377;28;20326;-67
2023/06/22 00:35:19;;;;;;;34.67;27.17;;;15.60;98.60;;;;;;5046203;28;20055;-67
2023/06/22 00:37:45;;;;;;;33.67;27.10;;;15.60;98.60;;;;;;5046243;28;20033;-67
2023/06/22 00:40:11;;;;;;;32.13;24.70;;;15.50;99.10;;;;;;5028978;28;20103;-67
2023/06/22 00:42:38;;;;;;;31.30;24.93;;;15.50;99.50;;;;;;5046263;28;20653;-67
2023/06/22 00:47:36;;;;;;;28.47;23.13;;;15.40;99.80;;;;;;5343937;23;20708;-66
2023/06/22 00:50:05;;;;;;;29.07;24.33;;;15.40;99.90;;;;;;4989679;28;20801;-66
2023/06/22 00:52:33;;;;;;;30.10;21.40;;;15.40;99.90;;;;;;4992842;28;20395;-66
2023/06/22 00:55:01;;;;;;;32.47;24.20;;;15.40;99.90;;;;;;4993433;28;20305;-66
2023/06/22 00:57:27;;;;;;;25.53;21.30;;;15.40;99.90;;;;;;5018168;28;20633;-66
2023/06/22 00:59:54;;;;;;;32.97;26.37;;;15.40;99.90;;;;;;4995524;28;20803;-66
2023/06/22 01:02:20;;;;;;;30.93;24.80;;;15.40;99.90;;;;;;5001143;28;20285;-66
2023/06/22 01:04:46;;;;;;;30.37;25.60;;;15.40;99.70;;;;;;4996603;28;20658;-66
2023/06/22 01:07:23;;;;;;;31.43;25.50;;;15.40;99.70;;;;;;4980447;28;20342;-66
2023/06/22 01:10:09;;;;;;;31.30;22.77;;;15.40;99.70;;;;;;5018813;28;20299;-66
2023/06/22 01:12:45;;;;;;;29.57;23.00;;;15.40;99.80;;;;;;4999281;28;20289;-66
2023/06/22 01:15:15;;;;;;;32.07;25.53;;;15.40;99.90;;;;;;4990023;28;20632;-66
2023/06/22 01:17:42;;;;;;;31.33;25.10;;;15.50;99.90;;;;;;5004295;28;20696;-66
2023/06/22 01:20:11;;;;;;;36.03;28.40;;;15.60;99.90;;;;;;5002254;28;20772;-66
2023/06/22 01:23:08;;;;;;;36.37;28.57;;;15.70;99.90;;;;;;4995249;28;20280;-66
2023/06/22 01:26:07;;;;;;;36.07;27.70;;;15.80;99.90;;;;;;4979833;28;20265;-66
2023/06/22 01:28:46;;;;;;;35.93;28.53;;;15.90;99.90;;;;;;4991765;28;20510;-66
2023/06/22 01:31:15;;;;;;;39.63;30.37;;;16.00;99.90;;;;;;4989430;28;20313;-66
2023/06/22 01:33:44;;;;;;;36.53;30.73;;;16.00;99.90;;;;;;4995549;28;20668;-66
2023/06/22 01:36:11;;;;;;;39.43;30.03;;;16.10;99.90;;;;;;4997474;28;20365;-66
2023/06/22 01:38:38;;;;;;;41.90;31.83;;;16.10;99.90;;;;;;4994903;28;20753;-66
2023/06/22 01:41:04;;;;;;;44.90;34.77;;;16.10;99.90;;;;;;4981503;28;20336;-66
2023/06/22 01:43:30;;;;;;;44.47;34.07;;;16.20;99.90;;;;;;4995697;28;20295;-66
2023/06/22 01:45:57;;;;;;;42.10;33.03;;;16.20;99.90;;;;;;5004130;28;20332;-66
2023/06/22 01:48:25;;;;;;;45.70;32.33;;;16.20;99.90;;;;;;4960934;28;20714;-66
2023/06/22 01:50:53;;;;;;;41.40;29.33;;;16.20;99.90;;;;;;4976071;28;20289;-66
2023/06/22 01:53:21;;;;;;;35.13;29.60;;;16.30;99.90;;;;;;4989206;28;20324;-66
2023/06/22 01:55:47;;;;;;;38.47;30.03;;;16.20;99.90;;;;;;4977352;28;20888;-66
2023/06/22 01:58:12;;;;;;;38.20;30.43;;;16.20;99.90;;;;;;4972807;28;20379;-66
2023/06/22 02:00:40;;;;;;;34.83;29.20;;;16.20;99.90;;;;;;4995271;28;20034;-66
2023/06/22 02:03:15;;;;;;;37.47;28.70;;;16.20;99.90;;;;;;4978716;28;20043;-66
2023/06/22 02:06:08;;;;;;;38.90;30.17;;;16.20;99.90;;;;;;4996682;28;20768;-66
2023/06/22 02:08:59;;;;;;;31.57;25.77;;;16.20;99.90;;;;;;4972489;28;20038;-66
2023/06/22 02:11:27;;;;;;;36.20;28.77;;;16.20;99.90;;;;;;4975546;28;20286;-67
2023/06/22 02:13:54;;;;;;;33.27;27.43;;;16.20;99.90;;;;;;4975927;28;20405;-66
2023/06/22 02:16:20;;;;;;;33.23;28.00;;;16.20;99.90;;;;;;4971644;28;20777;-66
2023/06/22 02:18:50;;;;;;;35.77;27.67;;;16.20;99.90;;;;;;4974518;28;20284;-66
2023/06/22 02:21:20;;;;;;;35.40;27.43;;;16.20;99.90;;;;;;4989336;28;20285;-66
2023/06/22 02:23:46;;;;;;;34.63;26.77;;;16.10;99.90;;;;;;4971585;28;20384;-66
2023/06/22 02:26:13;;;;;;;36.27;28.57;;;16.10;99.90;;;;;;4975937;28;20760;-66
2023/06/22 02:28:39;;;;;;;31.20;26.67;;;16.10;99.90;;;;;;4981232;28;20501;-66
2023/06/22 02:31:04;;;;;;;34.07;25.83;;;16.00;99.90;;;;;;4970454;28;20671;-66
2023/06/22 02:33:30;;;;;;;35.97;29.03;;;16.00;99.90;;;;;;4979990;28;20130;-66
2023/06/22 02:35:56;;;;;;;35.50;28.33;;;16.00;99.90;;;;;;4969880;28;20046;-66
2023/06/22 02:38:24;;;;;;;30.63;26.23;;;15.90;99.90;;;;;;4976762;28;20132;-66
2023/06/22 02:40:50;;;;;;;31.73;25.83;;;15.90;99.90;;;;;;4971929;28;20134;-66
2023/06/22 02:43:16;;;;;;;35.83;27.60;;;15.80;99.90;;;;;;4953805;28;20290;-66
2023/06/22 02:45:42;;;;;;;34.43;27.10;;;15.80;99.90;;;;;;4976646;28;20801;-66
2023/06/22 02:48:08;;;;;;;34.87;26.47;;;15.80;99.90;;;;;;4970747;28;20345;-66
2023/06/22 02:50:34;;;;;;;32.20;24.93;;;15.80;99.90;;;;;;4974086;28;20143;-66
2023/06/22 02:52:59;;;;;;;35.57;25.93;;;15.70;99.90;;;;;;4993588;28;20050;-66
2023/06/22 02:55:25;;;;;;;32.37;25.70;;;15.70;99.90;;;;;;4989733;28;20042;-66
2023/06/22 02:57:52;;;;;;;36.00;26.07;;;15.70;99.90;;;;;;4969514;28;20529;-66
2023/06/22 03:00:19;;;;;;;34.63;27.20;;;15.60;99.90;;;;;;4967598;28;20059;-66
2023/06/22 03:02:48;;;;;;;35.63;28.40;;;15.60;99.90;;;;;;4987619;28;20843;-66
2023/06/22 03:05:17;;;;;;;39.17;28.17;;;15.60;99.90;;;;;;4972173;28;20286;-66
2023/06/22 03:07:43;;;;;;;34.93;27.73;;;15.60;99.90;;;;;;4981094;28;20312;-67
2023/06/22 03:10:11;;;;;;;35.00;26.90;;;15.70;99.90;;;;;;4974798;28;20285;-66
2023/06/22 03:12:40;;;;;;;34.10;26.20;;;15.70;99.90;;;;;;4994195;28;20328;-66
2023/06/22 03:15:11;;;;;;;34.53;26.97;;;15.70;99.90;;;;;;4958511;28;20342;-66
2023/06/22 03:17:41;;;;;;;41.30;30.83;;;15.70;99.90;;;;;;4977207;28;20290;-66
2023/06/22 03:20:11;;;;;;;35.90;28.83;;;15.70;99.90;;;;;;4991199;28;20781;-66
2023/06/22 03:22:41;;;;;;;29.73;24.63;;;15.70;99.90;;;;;;4954662;28;20370;-66
2023/06/22 03:25:13;;;;;;;25.13;22.33;;;15.60;99.90;;;;;;4979582;28;20320;-66
2023/06/22 03:27:43;;;;;;;23.77;18.87;;;15.60;99.90;;;;;;4977207;28;20290;-66
2023/06/22 03:30:10;;;;;;;22.53;19.23;;;15.60;99.90;;;;;;4969633;28;20488;-66
2023/06/22 03:32:36;;;;;;;22.30;19.90;;;15.60;99.90;;;;;;4980416;28;20309;-66
2023/06/22 03:35:02;;;;;;;33.07;20.53;;;15.60;99.90;;;;;;4988561;28;20306;-66
2023/06/22 03:37:29;;;;;;;22.40;20.00;;;15.60;99.90;;;;;;4972816;28;20053;-66
2023/06/22 03:39:55;;;;;;;23.27;20.60;;;15.60;99.90;;;;;;4977713;28;20309;-66
2023/06/22 03:42:20;;;;;;;25.23;21.40;;;15.60;99.90;;;;;;4972209;28;20294;-66
2023/06/22 03:44:47;;;;;;;25.37;21.83;;;15.60;99.90;;;;;;4973386;28;20046;-66
2023/06/22 03:47:13;;;;;;;27.80;24.87;;;15.60;99.90;;;;;;4963504;28;20054;-66
2023/06/22 03:49:39;;;;;;;40.50;25.37;;;15.60;99.90;;;;;;4990331;28;20281;-66
2023/06/22 03:52:05;;;;;;;41.87;26.00;;;15.70;99.90;;;;;;4956638;28;20373;-66
2023/06/22 03:54:31;;;;;;;28.23;24.93;;;15.70;99.90;;;;;;4960623;28;20046;-66
2023/06/22 03:56:57;;;;;;;40.63;27.47;;;15.70;99.90;;;;;;4989613;28;20290;-66
2023/06/22 03:59:23;;;;;;;35.73;24.27;;;15.70;99.90;;;;;;4978739;28;20035;-66
2023/06/22 04:01:49;;;;;;;28.80;23.90;;;15.70;99.90;;;;;;4989941;28;20289;-66
2023/06/22 04:04:14;;;;;;;39.67;24.43;;;15.70;99.90;;;;;;4968797;28;20050;-66
2023/06/22 04:06:40;;;;;;;44.97;25.57;;;15.80;99.90;;;;;;4985592;28;20599;-66
2023/06/22 04:09:06;;;;;;;43.80;24.20;;;15.80;99.90;;;;;;4969110;28;20070;-67
2023/06/22 04:11:32;;;;;;;50.93;23.73;;;15.80;99.90;;;;;;4956037;28;20083;-66
2023/06/22 04:13:58;;;;;;;46.07;22.90;;;15.80;99.90;;;;;;4993228;28;20312;-66
2023/06/22 04:16:23;;;;;;;65.13;23.57;;;15.80;99.90;;;;;;4972571;28;20259;-66
2023/06/22 04:18:49;;;;;;;61.20;22.13;;;15.80;99.90;;;;;;4978706;28;20498;-66
2023/06/22 04:21:15;;;;;;;36.63;23.20;;;15.80;99.90;;;;;;4957209;28;20046;-66
2023/06/22 04:23:40;;;;;;;24.93;20.87;;;15.80;99.90;;;;;;4974012;28;20052;-66
2023/06/22 04:26:06;;;;;;;39.73;23.23;;;15.80;99.90;;;;;;4970511;28;20078;-66
2023/06/22 04:28:35;;;;;;;41.93;22.93;;;15.90;99.90;;;;;;4957150;28;20049;-66
2023/06/22 04:31:04;;;;;;;30.63;23.13;;;16.00;99.90;;;;;;4967002;28;20434;-66
2023/06/22 04:33:30;;;;;;;26.83;23.03;;;16.10;99.90;;;;;;4993692;28;20803;-67
2023/06/22 04:35:57;;;;;;;22.47;20.27;;;16.20;99.90;;;;;;4973137;28;20290;-66
2023/06/22 04:38:23;;;;;;;22.87;20.67;;;16.50;99.90;;;;;;4968665;28;20101;-66
2023/06/22 04:40:50;;;;;;;21.17;19.07;;;16.90;99.90;;;;;;4985719;28;20317;-66
2023/06/22 04:43:15;;;;;;;21.17;19.33;;;17.20;99.90;;;;;;4973342;28;20318;-66
2023/06/22 04:45:41;;;;;;;20.77;18.77;;;17.50;99.90;;;;;;4989581;28;20397;-68
2023/06/22 04:48:09;;;;;;;22.40;20.23;;;17.80;99.90;;;;;;4967970;28;20058;-66
2023/06/22 04:50:38;;;;;;;24.73;22.13;;;18.20;99.90;;;;;;4967061;28;20053;-66
2023/06/22 04:53:05;;;;;;;21.17;19.23;;;18.50;97.50;;;;;;4972683;28;20294;-66
2023/06/22 04:55:32;;;;;;;21.13;19.00;;;18.80;96.90;;;;;;4972654;28;20749;-66
2023/06/22 04:58:04;;;;;;;20.80;18.80;;;19.10;94.70;;;;;;4977299;28;20403;-66
2023/06/22 05:00:30;;;;;;;20.50;18.57;;;19.60;92.80;;;;;;4955537;28;20619;-66
2023/06/22 05:02:57;;;;;;;19.70;17.70;;;19.90;91.20;;;;;;4972487;28;20297;-66
2023/06/22 05:05:23;;;;;;;19.50;17.67;;;20.10;89.80;;;;;;4974783;28;20365;-66
2023/06/22 05:07:52;;;;;;;18.47;16.67;;;20.40;88.00;;;;;;4983126;28;20746;-66
2023/06/22 05:10:19;;;;;;;17.23;15.53;;;20.90;87.00;;;;;;4969813;28;20318;-66
2023/06/22 05:12:46;;;;;;;15.60;14.27;;;21.30;85.00;;;;;;4973018;28;20296;-66
2023/06/22 05:15:12;;;;;;;17.37;15.67;;;21.60;82.80;;;;;;4953251;28;20482;-66
2023/06/22 05:17:44;;;;;;;15.53;14.03;;;21.90;80.40;;;;;;4969908;28;20432;-66
2023/06/22 05:20:12;;;;;;;16.40;14.77;;;22.20;79.40;;;;;;4951941;28;20051;-66
2023/06/22 05:22:39;;;;;;;16.97;15.37;;;22.50;78.20;;;;;;4968251;28;20123;-66
2023/06/22 05:25:09;;;;;;;16.87;15.27;;;23.00;76.30;;;;;;4973305;28;20053;-66
2023/06/22 05:27:39;;;;;;;17.50;15.77;;;23.30;74.40;;;;;;4968890;28;20546;-66
2023/06/22 05:30:06;;;;;;;17.53;15.73;;;23.40;73.80;;;;;;4956240;28;20081;-66
2023/06/22 05:32:33;;;;;;;17.27;15.57;;;23.60;73.40;;;;;;4969375;28;20050;-66
2023/06/22 05:34:59;;;;;;;15.77;14.23;;;23.90;72.00;;;;;;4974179;28;20541;-66
2023/06/22 05:37:25;;;;;;;16.20;14.70;;;23.80;71.60;;;;;;4971695;28;20500;-66
2023/06/22 05:39:51;;;;;;;16.63;14.90;;;23.90;71.70;;;;;;4974145;28;20039;-66
2023/06/22 05:42:17;;;;;;;16.87;15.20;;;24.20;71.10;;;;;;4973474;28;20048;-66
2023/06/22 05:44:43;;;;;;;16.87;15.27;;;24.30;69.70;;;;;;4962977;28;20084;-66
2023/06/22 05:47:08;;;;;;;16.13;14.53;;;24.60;69.90;;;;;;4974326;28;20051;-66
2023/06/22 05:49:34;;;;;;;17.17;15.37;;;24.70;69.20;;;;;;4991856;28;20499;-66
2023/06/22 05:52:00;;;;;;;17.47;15.77;;;24.90;68.40;;;;;;4974029;28;20081;-66
2023/06/22 05:54:28;;;;;;;17.80;16.00;;;24.80;68.30;;;;;;4961679;28;20370;-66
2023/06/22 05:56:54;;;;;;;20.47;16.67;;;24.60;68.70;;;;;;4958536;28;20058;-66
2023/06/22 05:59:19;;;;;;;19.13;17.20;;;24.20;69.80;;;;;;4978155;28;20038;-66
2023/06/22 06:01:49;;;;;;;19.90;17.23;;;23.80;70.80;;;;;;4974845;28;20048;-66
2023/06/22 06:04:16;;;;;;;19.17;17.37;;;23.60;71.70;;;;;;4971718;28;20042;-66
2023/06/22 06:06:42;;;;;;;20.50;18.40;;;23.40;71.70;;;;;;4965790;28;20047;-66
2023/06/22 06:09:08;;;;;;;20.23;18.13;;;23.40;72.00;;;;;;4976715;28;20481;-66
2023/06/22 06:11:33;;;;;;;21.90;18.37;;;23.10;73.20;;;;;;4974626;28;20069;-66
2023/06/22 06:13:59;;;;;;;20.07;17.67;;;22.90;73.50;;;;;;4979743;28;20042;-66
2023/06/22 06:16:25;;;;;;;21.03;18.70;;;22.70;73.90;;;;;;4977051;28;20093;-66
2023/06/22 06:18:53;;;;;;;21.77;19.47;;;22.50;74.80;;;;;;4980142;28;20128;-66
2023/06/22 06:21:18;;;;;;;20.73;18.37;;;22.40;75.30;;;;;;4987780;28;20320;-66
2023/06/22 06:23:44;;;;;;;21.27;19.17;;;22.10;76.20;;;;;;4975615;28;20109;-66
2023/06/22 06:26:10;;;;;;;22.00;19.77;;;21.90;77.20;;;;;;4970414;28;20043;-66
2023/06/22 06:28:36;;;;;;;21.97;19.67;;;21.90;77.10;;;;;;4980855;28;20046;-66
2023/06/22 06:31:01;;;;;;;25.03;22.07;;;21.80;77.80;;;;;;4974237;28;20466;-66
2023/06/22 06:33:27;;;;;;;24.33;21.23;;;21.70;78.30;;;;;;4974582;28;20413;-66
2023/06/22 06:35:55;;;;;;;24.20;21.63;;;21.60;79.30;;;;;;4975046;28;20047;-66
2023/06/22 06:38:21;;;;;;;25.00;22.43;;;21.80;79.30;;;;;;4976124;28;20477;-66
2023/06/22 06:40:48;;;;;;;27.00;21.63;;;21.80;79.20;;;;;;4984384;28;20074;-66
2023/06/22 06:43:14;;;;;;;26.10;23.30;;;21.90;79.00;;;;;;4989317;28;20093;-66
2023/06/22 06:45:40;;;;;;;27.67;22.57;;;22.00;78.10;;;;;;4991536;28;20406;-66
2023/06/22 06:48:05;;;;;;;26.43;23.60;;;22.00;77.90;;;;;;4957599;28;20129;-66
2023/06/22 06:50:31;;;;;;;25.33;22.60;;;22.00;77.80;;;;;;4974822;28;20109;-66
2023/06/22 06:52:59;;;;;;;25.37;22.67;;;22.00;78.00;;;;;;5001159;28;20057;-66
2023/06/22 06:55:25;;;;;;;23.60;21.10;;;22.10;77.80;;;;;;4973765;28;20050;-66
2023/06/22 06:57:52;;;;;;;24.70;22.07;;;22.20;76.90;;;;;;4995322;28;20034;-66
2023/06/22 07:00:18;;;;;;;25.87;22.47;;;22.30;75.70;;;;;;4965919;28;20046;-66
2023/06/22 07:02:47;;;;;;;25.90;21.37;;;22.30;75.40;;;;;;4968159;28;20078;-66
2023/06/22 07:05:13;;;;;;;25.57;22.10;;;22.30;75.90;;;;;;4971087;28;20043;-66
2023/06/22 07:07:39;;;;;;;26.27;22.93;;;22.40;75.60;;;;;;4972418;28;20050;-68
2023/06/22 07:10:06;;;;;;;24.30;21.70;;;22.70;75.60;;;;;;4973069;28;20411;-69
2023/06/22 07:12:31;;;;;;;25.17;22.10;;;22.90;74.60;;;;;;4958183;28;20086;-68
2023/06/22 07:15:08;;;;;;;23.13;20.73;;;23.00;74.40;;;;;;4975498;28;20497;-69
2023/06/22 07:17:35;;;;;;;26.63;22.33;;;23.00;74.30;;;;;;4972154;28;20081;-68
2023/06/22 07:20:02;;;;;;;26.27;23.40;;;23.00;74.40;;;;;;4965064;28;20043;-69
2023/06/22 07:22:27;;;;;;;25.77;22.50;;;22.90;74.80;;;;;;4970876;28;20035;-68
2023/06/22 07:24:53;;;;;;;23.73;21.33;;;22.90;74.70;;;;;;4991486;28;20053;-69
2023/06/22 07:27:19;;;;;;;24.70;22.00;;;22.90;74.00;;;;;;4972129;28;20078;-68
2023/06/22 07:29:45;;;;;;;27.53;22.90;;;22.80;74.40;;;;;;4989280;28;20043;-68
2023/06/22 07:32:11;;;;;;;24.83;22.23;;;22.70;75.10;;;;;;4973117;28;20057;-68
2023/06/22 07:34:37;;;;;;;23.83;20.73;;;22.70;75.00;;;;;;4971374;28;20133;-68
2023/06/22 07:37:04;;;;;;;22.77;20.20;;;22.70;76.10;;;;;;4967830;28;20102;-68
2023/06/22 07:39:30;;;;;;;21.20;18.70;;;22.80;75.10;;;;;;4971544;28;20053;-68
2023/06/22 07:41:56;;;;;;;19.23;16.77;;;22.80;74.20;;;;;;4969407;28;20407;-68
2023/06/22 07:44:21;;;;;;;18.83;16.53;;;22.90;72.70;;;;;;4988359;28;20395;-68
2023/06/22 07:46:47;;;;;;;19.37;16.43;;;22.90;73.40;;;;;;4969685;28;20047;-68
2023/06/22 07:49:13;;;;;;;19.90;15.63;;;23.00;71.70;;;;;;4971740;28;20043;-68
2023/06/22 07:51:39;;;;;;;19.07;16.20;;;23.00;72.90;;;;;;4974296;28;20463;-68
2023/06/22 07:54:04;;;;;;;17.93;15.97;;;23.00;72.60;;;;;;4974198;28;20038;-68
2023/06/22 07:56:30;;;;;;;17.73;14.60;;;23.10;73.00;;;;;;4972640;28;20058;-67
2023/06/22 07:58:58;;;;;;;17.53;15.20;;;23.20;71.00;;;;;;4991671;28;20911;-68
2023/06/22 08:01:23;;;;;;;16.57;13.53;;;23.20;71.20;;;;;;4974981;28;20140;-67
2023/06/22 08:03:49;;;;;;;18.80;15.37;;;23.30;71.30;;;;;;4983750;28;20082;-68
2023/06/22 08:06:16;;;;;;;18.10;15.80;;;23.30;70.80;;;;;;4965799;28;20044;-68
2023/06/22 08:08:42;;;;;;;18.37;14.27;;;23.40;70.90;;;;;;4968957;28;20185;-68
2023/06/22 08:11:08;;;;;;;15.93;13.93;;;23.50;70.20;;;;;;4972585;28;20764;-68
2023/06/22 08:13:34;;;;;;;19.33;15.43;;;23.50;70.00;;;;;;4984414;28;20062;-68
2023/06/22 08:16:00;;;;;;;15.07;13.03;;;23.50;68.90;;;;;;4954867;28;20498;-68
2023/06/22 08:18:26;;;;;;;15.73;12.73;;;23.50;69.30;;;;;;4953174;28;20042;-68
2023/06/22 08:20:52;;;;;;;16.93;13.17;;;23.50;69.70;;;;;;4968684;28;20073;-68
2023/06/22 08:23:18;;;;;;;15.50;12.87;;;23.60;69.40;;;;;;4968330;28;20405;-68
2023/06/22 08:25:44;;;;;;;13.57;10.47;;;23.70;68.90;;;;;;4965734;28;20038;-68
2023/06/22 08:28:10;;;;;;;13.73;10.33;;;23.80;66.80;;;;;;4972003;28;20054;-69
2023/06/22 08:30:35;;;;;;;15.07;12.93;;;23.90;67.20;;;;;;4970160;28;20049;-69
2023/06/22 08:33:04;;;;;;;16.37;12.53;;;23.90;67.00;;;;;;4971347;28;20077;-69
2023/06/22 08:35:29;;;;;;;16.43;12.07;;;23.90;66.90;;;;;;4986371;28;20058;-68
2023/06/22 08:37:56;;;;;;;18.23;11.50;;;24.00;66.70;;;;;;4972559;28;20046;-69
2023/06/22 08:40:22;;;;;;;16.10;12.03;;;23.90;65.60;;;;;;4971578;28;20237;-69
2023/06/22 08:42:49;;;;;;;14.97;11.17;;;24.00;67.40;;;;;;4971555;28;20577;-68
2023/06/22 08:45:18;;;;;;;10.93;8.97;;;24.20;67.80;;;;;;4966647;28;20085;-68
2023/06/22 08:47:44;;;;;;;11.07;8.60;;;24.40;65.70;;;;;;4951230;28;20086;-68
2023/06/22 08:50:11;;;;;;;11.03;8.73;;;24.60;64.90;;;;;;4984733;28;20148;-69
2023/06/22 08:52:41;;;;;;;10.87;8.80;;;24.70;64.70;;;;;;4959650;28;20367;-69
2023/06/22 08:55:07;;;;;;;9.00;7.90;;;24.80;64.70;;;;;;4974939;28;20406;-68
2023/06/22 08:57:33;;;;;;;8.27;6.83;;;24.90;62.50;;;;;;4969529;28;20460;-68
2023/06/22 08:59:59;;;;;;;9.43;7.87;;;24.90;61.20;;;;;;4953961;28;20118;-68
2023/06/22 09:02:30;;;;;;;7.37;6.00;;;24.80;61.30;;;;;;4972822;28;20117;-68
2023/06/22 09:04:58;;;;;;;9.47;7.23;;;24.70;62.20;;;;;;4970663;28;20051;-68
2023/06/22 09:07:25;;;;;;;9.87;8.03;;;24.70;61.40;;;;;;4970828;28;20069;-68
2023/06/22 09:09:51;;;;;;;8.40;6.70;;;24.80;60.70;;;;;;4983668;28;20050;-68
2023/06/22 09:12:24;;;;;;;7.40;5.20;;;24.90;61.70;;;;;;4959519;28;20386;-68
2023/06/22 09:14:50;;;;;;;9.67;6.83;;;24.90;59.40;;;;;;4978037;28;20171;-68
2023/06/22 09:17:15;;;;;;;11.03;7.77;;;25.00;59.70;;;;;;4973659;28;20067;-68
2023/06/22 09:19:41;;;;;;;9.67;8.67;;;25.10;60.80;;;;;;4971498;28;20093;-68
2023/06/22 09:22:07;;;;;;;10.83;8.03;;;25.30;60.80;;;;;;4967246;28;20055;-68
2023/06/22 09:24:33;;;;;;;11.43;8.63;;;25.40;60.30;;;;;;4972094;28;20046;-69
2023/06/22 09:26:58;;;;;;;11.60;8.33;;;25.40;58.80;;;;;;4987983;28;20054;-68
2023/06/22 09:29:25;;;;;;;12.50;9.10;;;25.40;58.90;;;;;;4950635;28;20724;-68
2023/06/22 09:31:53;;;;;;;10.83;6.97;;;25.40;59.60;;;;;;4950734;28;20078;-68
2023/06/22 09:34:20;;;;;;;7.77;5.97;;;25.50;57.60;;;;;;4989646;28;20054;-69
2023/06/22 09:36:46;;;;;;;9.27;7.70;;;25.50;56.50;;;;;;4991421;28;20478;-69
2023/06/22 09:39:12;;;;;;;13.07;9.63;;;25.40;58.50;;;;;;4974620;28;20035;-69
2023/06/22 09:41:37;;;;;;;14.90;11.33;;;25.50;58.40;;;;;;4975533;28;20039;-69
2023/06/22 09:44:03;;;;;;;14.83;11.60;;;25.50;59.10;;;;;;4972847;28;20050;-69
2023/06/22 09:46:29;;;;;;;14.00;10.13;;;25.60;59.00;;;;;;4955508;28;20051;-69
2023/06/22 09:48:55;;;;;;;10.27;8.77;;;25.70;59.30;;;;;;4953709;28;20059;-69
2023/06/22 09:51:21;;;;;;;13.17;9.13;;;25.80;59.10;;;;;;4969270;28;20042;-69
2023/06/22 09:53:47;;;;;;;11.90;8.90;;;25.90;59.50;;;;;;4971753;28;20118;-69
2023/06/22 09:56:16;;;;;;;12.93;9.83;;;26.20;58.90;;;;;;4991182;28;20557;-69
2023/06/22 09:58:43;;;;;;;11.90;10.10;;;26.30;57.80;;;;;;4951784;28;20039;-69
2023/06/22 10:01:10;;;;;;;14.03;8.93;;;26.50;56.80;;;;;;4973650;28;20779;-69
2023/06/22 10:03:36;;;;;;;14.67;11.53;;;26.60;56.90;;;;;;4974138;28;20379;-69
2023/06/22 10:06:02;;;;;;;14.00;12.07;;;26.70;55.80;;;;;;4976314;28;20134;-69
2023/06/22 10:08:28;;;;;;;16.57;11.67;;;26.70;56.50;;;;;;4971314;28;21340;-69
2023/06/22 10:10:53;;;;;;;11.63;9.93;;;26.60;55.90;;;;;;4975547;28;20505;-69
2023/06/22 10:13:19;;;;;;;11.80;9.37;;;26.50;55.90;;;;;;4989178;28;20043;-69
2023/06/22 10:15:49;;;;;;;12.47;10.23;;;26.50;56.70;;;;;;4956837;28;20031;-69
2023/06/22 10:18:19;;;;;;;12.00;9.33;;;26.50;56.50;;;;;;4991626;28;20038;-69
2023/06/22 10:20:52;;;;;;;12.03;9.27;;;26.60;56.00;;;;;;4970383;28;20117;-69
2023/06/22 10:23:21;;;;;;;12.17;9.27;;;26.80;56.10;;;;;;4973303;28;20510;-69
2023/06/22 10:25:47;;;;;;;10.93;9.43;;;27.00;54.20;;;;;;4975705;28;20446;-69
2023/06/22 10:28:13;;;;;;;10.37;8.30;;;27.00;55.60;;;;;;4971835;28;20073;-69
2023/06/22 10:30:42;;;;;;;9.33;8.03;;;27.00;54.50;;;;;;4973189;28;20402;-69
2023/06/22 10:33:12;;;;;;;9.00;6.73;;;27.10;53.60;;;;;;4973708;28;20506;-69
2023/06/22 10:35:37;;;;;;;9.23;7.90;;;27.20;52.60;;;;;;4988670;28;20259;-69
2023/06/22 10:38:04;;;;;;;13.07;7.90;;;27.20;53.90;;;;;;4974014;28;20038;-69
2023/06/22 10:40:30;;;;;;;10.63;7.77;;;27.20;53.50;;;;;;4955870;28;20081;-69
2023/06/22 10:42:56;;;;;;;10.53;7.97;;;27.40;53.20;;;;;;4972172;28;20104;-69
2023/06/22 10:45:22;;;;;;;10.57;8.73;;;27.50;53.10;;;;;;4967407;28;20035;-69
2023/06/22 10:47:47;;;;;;;10.33;9.10;;;27.60;53.30;;;;;;4970820;28;20054;-69
2023/06/22 10:50:14;;;;;;;10.43;8.90;;;27.70;52.10;;;;;;4992076;28;20384;-69
2023/06/22 10:52:41;;;;;;;11.90;10.70;;;27.80;52.10;;;;;;4977076;28;20042;-69
2023/06/22 10:55:08;;;;;;;11.20;9.30;;;27.80;51.00;;;;;;4975094;28;20054;-69
2023/06/22 10:57:33;;;;;;;11.87;9.33;;;27.90;51.30;;;;;;4961382;28;20035;-69
2023/06/22 10:59:59;;;;;;;12.60;10.07;;;27.90;51.70;;;;;;4992658;28;20059;-69
2023/06/22 11:02:25;;;;;;;8.27;7.33;;;28.00;51.00;;;;;;4990485;28;20747;-69
2023/06/22 11:04:50;;;;;;;9.33;7.67;;;28.00;50.70;;;;;;4972977;28;20057;-69
2023/06/22 11:07:16;;;;;;;9.97;7.27;;;27.90;50.40;;;;;;4969329;28;20100;-69
2023/06/22 11:09:43;;;;;;;7.90;6.90;;;27.90;48.00;;;;;;4982513;28;20038;-69
2023/06/22 11:12:09;;;;;;;8.47;7.30;;;27.80;49.40;;;;;;4968720;28;20454;-70
2023/06/22 11:14:35;;;;;;;9.77;7.90;;;27.80;49.90;;;;;;4972137;28;20078;-69
2023/06/22 11:17:00;;;;;;;8.33;6.70;;;27.70;49.40;;;;;;4970466;28;20101;-70
2023/06/22 11:19:26;;;;;;;8.63;6.87;;;27.70;50.00;;;;;;4986122;28;20052;-69
2023/06/22 11:21:52;;;;;;;7.00;5.60;;;27.70;48.80;;;;;;4974833;28;20038;-70
2023/06/22 11:24:18;;;;;;;7.70;5.70;;;27.70;49.60;;;;;;4971216;28;20039;-70
2023/06/22 11:26:44;;;;;;;5.63;4.67;;;27.80;48.00;;;;;;4987730;28;20070;-69
2023/06/22 11:29:09;;;;;;;10.40;6.70;;;27.80;47.90;;;;;;4987420;28;20047;-69
2023/06/22 11:31:35;;;;;;;7.40;5.07;;;27.90;47.50;;;;;;4970395;28;20097;-69
2023/06/22 11:34:02;;;;;;;6.40;4.50;;;28.10;47.70;;;;;;4972334;28;20097;-69
2023/06/22 11:36:29;;;;;;;5.83;5.13;;;28.30;47.90;;;;;;4976415;28;20076;-69
2023/06/22 11:38:55;;;;;;;6.40;5.30;;;28.40;47.10;;;;;;4969191;28;20046;-70
2023/06/22 11:41:20;;;;;;;7.07;5.00;;;28.60;46.90;;;;;;4977190;28;20612;-69
2023/06/22 11:43:46;;;;;;;6.53;5.23;;;28.60;46.80;;;;;;4990027;28;20046;-69
2023/06/22 11:46:12;;;;;;;6.40;5.60;;;28.70;46.00;;;;;;4989866;28;20064;-70
2023/06/22 11:48:38;;;;;;;6.53;5.53;;;28.60;45.80;;;;;;4968854;28;20105;-69
2023/06/22 11:51:03;;;;;;;6.83;4.57;;;28.50;44.80;;;;;;4984309;28;20129;-69
2023/06/22 11:53:29;;;;;;;5.30;3.80;;;28.20;45.90;;;;;;4972482;28;20121;-70
2023/06/22 11:55:56;;;;;;;8.00;5.53;;;28.00;46.90;;;;;;4983454;28;20067;-69
2023/06/22 11:58:22;;;;;;;7.50;4.80;;;27.80;47.70;;;;;;4967157;28;20130;-70
2023/06/22 12:00:48;;;;;;;8.13;5.20;;;27.80;48.10;;;;;;4968891;28;20038;-70
2023/06/22 12:03:17;;;;;;;5.90;4.30;;;27.80;46.80;;;;;;4969679;28;20069;-69
2023/06/22 12:05:43;;;;;;;8.13;4.77;;;27.60;47.50;;;;;;4970612;28;20039;-70
2023/06/22 12:08:09;;;;;;;6.20;4.37;;;27.50;47.50;;;;;;4970665;28;20045;-69
2023/06/22 12:10:34;;;;;;;7.20;4.50;;;27.40;46.70;;;;;;4973738;28;20558;-69
2023/06/22 12:13:00;;;;;;;7.90;5.23;;;27.40;47.10;;;;;;4973408;28;20125;-69
2023/06/22 12:15:27;;;;;;;7.53;5.03;;;27.40;47.30;;;;;;4972988;28;20413;-69
2023/06/22 12:17:53;;;;;;;8.90;5.77;;;27.30;48.30;;;;;;4972366;28;20042;-69
2023/06/22 12:20:19;;;;;;;9.87;6.80;;;27.30;48.90;;;;;;4973972;28;20117;-69
2023/06/22 12:22:45;;;;;;;6.70;6.00;;;27.40;48.50;;;;;;4968087;28;20046;-69
2023/06/22 12:25:11;;;;;;;7.43;5.77;;;27.40;49.20;;;;;;4970730;28;20513;-70
2023/06/22 12:27:37;;;;;;;6.43;5.07;;;27.30;50.10;;;;;;4985623;28;20042;-70
2023/06/22 12:30:04;;;;;;;7.47;5.23;;;27.30;51.40;;;;;;4974765;28;20046;-70
2023/06/22 12:32:30;;;;;;;9.37;5.33;;;27.40;51.40;;;;;;4969454;28;20060;-70